sensor_id;sensor_type;location;lat;lon;timestamp;P1;durP1;ratioP1;P2;durP2;ratioP2
12511;SDS011;6321;53.798;10.382;2022-07-17T00:00:16;3.70;;;2.30;;
12511;SDS011;6321;53.798;10.382;2022-07-17T00:02:42;4.47;;;2.33;;
12511;SDS011;6321;53.798;10.382;2022-07-17T00:05:08;6.87;;;2.30;;
12511;SDS011;6321;53.798;10.382;2022-07-17T00:07:34;4.30;;;2.57;;
12511;SDS011;6321;53.798;10.382;2022-07-17T00:10:00;5.70;;;2.60;;
12511;SDS011;6321;53.798;10.382;2022-07-17T00:12:26;5.30;;;2.60;;
12511;SDS011;6321;53.798;10.382;2022-07-17T00:14:52;6.33;;;2.57;;
12511;SDS011;6321;53.798;10.382;2022-07-17T00:17:18;7.73;;;3.03;;
12511;SDS011;6321;53.798;10.382;2022-07-17T00:19:46;8.20;;;2.30;;
12511;SDS011;6321;53.798;10.382;2022-07-17T00:22:12;5.80;;;2.60;;
12511;SDS011;6321;53.798;10.382;2022-07-17T00:24:38;3.70;;;2.40;;
12511;SDS011;6321;53.798;10.382;2022-07-17T00:27:04;7.20;;;2.87;;
12511;SDS011;6321;53.798;10.382;2022-07-17T00:29:30;5.47;;;3.43;;
12511;SDS011;6321;53.798;10.382;2022-07-17T00:31:56;6.33;;;2.50;;
12511;SDS011;6321;53.798;10.382;2022-07-17T00:34:22;8.53;;;2.80;;
12511;SDS011;6321;53.798;10.382;2022-07-17T00:36:48;9.77;;;2.83;;
12511;SDS011;6321;53.798;10.382;2022-07-17T00:39:14;8.43;;;2.97;;
12511;SDS011;6321;53.798;10.382;2022-07-17T00:41:39;9.03;;;3.00;;
12511;SDS011;6321;53.798;10.382;2022-07-17T00:44:06;5.23;;;2.67;;
12511;SDS011;6321;53.798;10.382;2022-07-17T00:46:33;6.40;;;2.40;;
12511;SDS011;6321;53.798;10.382;2022-07-17T00:48:59;6.33;;;2.40;;
12511;SDS011;6321;53.798;10.382;2022-07-17T00:51:25;7.73;;;2.40;;
12511;SDS011;6321;53.798;10.382;2022-07-17T00:53:52;5.50;;;2.77;;
12511;SDS011;6321;53.798;10.382;2022-07-17T00:56:19;8.30;;;3.37;;
12511;SDS011;6321;53.798;10.382;2022-07-17T00:58:46;12.97;;;2.80;;
12511;SDS011;6321;53.798;10.382;2022-07-17T01:01:14;7.40;;;2.50;;
12511;SDS011;6321;53.798;10.382;2022-07-17T01:03:40;7.60;;;2.43;;
12511;SDS011;6321;53.798;10.382;2022-07-17T01:06:06;5.33;;;2.67;;
12511;SDS011;6321;53.798;10.382;2022-07-17T01:08:32;6.07;;;3.33;;
12511;SDS011;6321;53.798;10.382;2022-07-17T01:10:58;7.30;;;2.70;;
12511;SDS011;6321;53.798;10.382;2022-07-17T01:13:24;8.43;;;2.40;;
12511;SDS011;6321;53.798;10.382;2022-07-17T01:15:50;4.97;;;2.43;;
12511;SDS011;6321;53.798;10.382;2022-07-17T01:18:16;7.93;;;2.60;;
12511;SDS011;6321;53.798;10.382;2022-07-17T01:20:43;7.23;;;2.60;;
12511;SDS011;6321;53.798;10.382;2022-07-17T01:23:10;9.40;;;2.37;;
12511;SDS011;6321;53.798;10.382;2022-07-17T01:25:36;7.83;;;2.63;;
12511;SDS011;6321;53.798;10.382;2022-07-17T01:28:02;6.87;;;2.50;;
12511;SDS011;6321;53.798;10.382;2022-07-17T01:30:28;5.57;;;2.23;;
12511;SDS011;6321;53.798;10.382;2022-07-17T01:32:54;6.30;;;2.70;;
12511;SDS011;6321;53.798;10.382;2022-07-17T01:35:20;4.33;;;2.40;;
12511;SDS011;6321;53.798;10.382;2022-07-17T01:37:46;4.30;;;2.50;;
12511;SDS011;6321;53.798;10.382;2022-07-17T01:40:13;7.47;;;2.97;;
12511;SDS011;6321;53.798;10.382;2022-07-17T01:42:42;4.83;;;2.73;;
12511;SDS011;6321;53.798;10.382;2022-07-17T01:45:08;6.43;;;2.87;;
12511;SDS011;6321;53.798;10.382;2022-07-17T01:47:34;6.37;;;2.80;;
12511;SDS011;6321;53.798;10.382;2022-07-17T01:50:00;10.87;;;2.70;;
12511;SDS011;6321;53.798;10.382;2022-07-17T01:52:27;7.63;;;3.17;;
12511;SDS011;6321;53.798;10.382;2022-07-17T01:54:53;4.10;;;2.63;;
12511;SDS011;6321;53.798;10.382;2022-07-17T01:57:19;6.20;;;2.43;;
12511;SDS011;6321;53.798;10.382;2022-07-17T01:59:45;6.00;;;2.87;;
12511;SDS011;6321;53.798;10.382;2022-07-17T02:02:11;9.90;;;3.40;;
12511;SDS011;6321;53.798;10.382;2022-07-17T02:04:37;5.77;;;3.43;;
12511;SDS011;6321;53.798;10.382;2022-07-17T02:07:06;9.00;;;3.10;;
12511;SDS011;6321;53.798;10.382;2022-07-17T02:09:32;6.60;;;2.87;;
12511;SDS011;6321;53.798;10.382;2022-07-17T02:11:58;7.53;;;3.20;;
12511;SDS011;6321;53.798;10.382;2022-07-17T02:14:24;6.20;;;3.53;;
12511;SDS011;6321;53.798;10.382;2022-07-17T02:16:50;7.53;;;3.30;;
12511;SDS011;6321;53.798;10.382;2022-07-17T02:19:16;7.10;;;3.10;;
12511;SDS011;6321;53.798;10.382;2022-07-17T02:21:42;11.43;;;3.30;;
12511;SDS011;6321;53.798;10.382;2022-07-17T02:24:08;9.80;;;3.20;;
12511;SDS011;6321;53.798;10.382;2022-07-17T02:26:34;7.77;;;3.37;;
12511;SDS011;6321;53.798;10.382;2022-07-17T02:29:00;6.87;;;3.20;;
12511;SDS011;6321;53.798;10.382;2022-07-17T02:31:26;6.40;;;3.50;;
12511;SDS011;6321;53.798;10.382;2022-07-17T02:33:51;9.37;;;3.30;;
12511;SDS011;6321;53.798;10.382;2022-07-17T02:36:17;6.03;;;2.83;;
12511;SDS011;6321;53.798;10.382;2022-07-17T02:38:44;5.57;;;2.80;;
12511;SDS011;6321;53.798;10.382;2022-07-17T02:41:09;9.00;;;3.33;;
12511;SDS011;6321;53.798;10.382;2022-07-17T02:43:35;7.60;;;3.40;;
12511;SDS011;6321;53.798;10.382;2022-07-17T02:46:02;9.30;;;3.30;;
12511;SDS011;6321;53.798;10.382;2022-07-17T02:48:28;13.13;;;3.20;;
12511;SDS011;6321;53.798;10.382;2022-07-17T02:50:54;6.23;;;3.27;;
12511;SDS011;6321;53.798;10.382;2022-07-17T02:53:20;8.37;;;3.63;;
12511;SDS011;6321;53.798;10.382;2022-07-17T02:55:46;7.37;;;3.13;;
12511;SDS011;6321;53.798;10.382;2022-07-17T02:58:12;8.00;;;3.37;;
12511;SDS011;6321;53.798;10.382;2022-07-17T03:00:38;8.03;;;2.97;;
12511;SDS011;6321;53.798;10.382;2022-07-17T03:03:04;7.87;;;3.23;;
12511;SDS011;6321;53.798;10.382;2022-07-17T03:05:30;9.60;;;3.40;;
12511;SDS011;6321;53.798;10.382;2022-07-17T03:07:56;9.67;;;4.10;;
12511;SDS011;6321;53.798;10.382;2022-07-17T03:10:22;8.30;;;3.63;;
12511;SDS011;6321;53.798;10.382;2022-07-17T03:12:48;8.43;;;3.37;;
12511;SDS011;6321;53.798;10.382;2022-07-17T03:15:14;5.60;;;3.33;;
12511;SDS011;6321;53.798;10.382;2022-07-17T03:17:40;8.73;;;3.40;;
12511;SDS011;6321;53.798;10.382;2022-07-17T03:20:07;8.70;;;3.87;;
12511;SDS011;6321;53.798;10.382;2022-07-17T03:22:33;6.37;;;3.47;;
12511;SDS011;6321;53.798;10.382;2022-07-17T03:24:59;5.97;;;3.13;;
12511;SDS011;6321;53.798;10.382;2022-07-17T03:27:25;10.50;;;3.60;;
12511;SDS011;6321;53.798;10.382;2022-07-17T03:29:54;9.27;;;3.60;;
12511;SDS011;6321;53.798;10.382;2022-07-17T03:32:20;8.90;;;3.80;;
12511;SDS011;6321;53.798;10.382;2022-07-17T03:34:47;11.93;;;3.77;;
12511;SDS011;6321;53.798;10.382;2022-07-17T03:37:13;9.23;;;3.70;;
12511;SDS011;6321;53.798;10.382;2022-07-17T03:39:39;5.83;;;3.70;;
12511;SDS011;6321;53.798;10.382;2022-07-17T03:42:05;6.97;;;3.93;;
12511;SDS011;6321;53.798;10.382;2022-07-17T03:44:31;9.40;;;4.23;;
12511;SDS011;6321;53.798;10.382;2022-07-17T03:46:56;6.87;;;3.60;;
12511;SDS011;6321;53.798;10.382;2022-07-17T03:49:22;8.47;;;3.53;;
12511;SDS011;6321;53.798;10.382;2022-07-17T03:51:49;10.57;;;3.70;;
12511;SDS011;6321;53.798;10.382;2022-07-17T03:54:15;6.57;;;3.70;;
12511;SDS011;6321;53.798;10.382;2022-07-17T03:56:41;8.07;;;3.70;;
12511;SDS011;6321;53.798;10.382;2022-07-17T03:59:07;10.57;;;3.93;;
12511;SDS011;6321;53.798;10.382;2022-07-17T04:01:33;5.87;;;3.73;;
12511;SDS011;6321;53.798;10.382;2022-07-17T04:03:59;7.60;;;3.57;;
12511;SDS011;6321;53.798;10.382;2022-07-17T04:06:25;6.77;;;3.63;;
12511;SDS011;6321;53.798;10.382;2022-07-17T04:08:51;8.00;;;3.80;;
12511;SDS011;6321;53.798;10.382;2022-07-17T04:11:17;11.23;;;3.60;;
12511;SDS011;6321;53.798;10.382;2022-07-17T04:13:45;7.93;;;3.70;;
12511;SDS011;6321;53.798;10.382;2022-07-17T04:16:11;7.63;;;3.63;;
12511;SDS011;6321;53.798;10.382;2022-07-17T04:18:37;11.37;;;4.00;;
12511;SDS011;6321;53.798;10.382;2022-07-17T04:21:05;11.23;;;4.30;;
12511;SDS011;6321;53.798;10.382;2022-07-17T04:23:32;9.17;;;4.23;;
12511;SDS011;6321;53.798;10.382;2022-07-17T04:25:58;9.43;;;3.80;;
12511;SDS011;6321;53.798;10.382;2022-07-17T04:28:24;7.57;;;3.50;;
12511;SDS011;6321;53.798;10.382;2022-07-17T04:30:50;6.97;;;3.70;;
12511;SDS011;6321;53.798;10.382;2022-07-17T04:33:16;6.60;;;3.30;;
12511;SDS011;6321;53.798;10.382;2022-07-17T04:35:42;7.93;;;3.30;;
12511;SDS011;6321;53.798;10.382;2022-07-17T04:38:08;7.47;;;3.77;;
12511;SDS011;6321;53.798;10.382;2022-07-17T04:40:35;6.37;;;3.23;;
12511;SDS011;6321;53.798;10.382;2022-07-17T04:43:01;11.40;;;3.87;;
12511;SDS011;6321;53.798;10.382;2022-07-17T04:45:27;10.47;;;4.23;;
12511;SDS011;6321;53.798;10.382;2022-07-17T04:47:53;10.80;;;3.67;;
12511;SDS011;6321;53.798;10.382;2022-07-17T04:50:19;8.43;;;4.43;;
12511;SDS011;6321;53.798;10.382;2022-07-17T04:52:45;9.57;;;2.97;;
12511;SDS011;6321;53.798;10.382;2022-07-17T04:55:11;9.80;;;3.53;;
12511;SDS011;6321;53.798;10.382;2022-07-17T04:57:37;13.33;;;3.50;;
12511;SDS011;6321;53.798;10.382;2022-07-17T05:00:04;7.20;;;3.47;;
12511;SDS011;6321;53.798;10.382;2022-07-17T05:02:30;5.90;;;3.73;;
12511;SDS011;6321;53.798;10.382;2022-07-17T05:04:56;5.73;;;3.03;;
12511;SDS011;6321;53.798;10.382;2022-07-17T05:07:22;8.00;;;3.37;;
12511;SDS011;6321;53.798;10.382;2022-07-17T05:09:48;7.80;;;3.57;;
12511;SDS011;6321;53.798;10.382;2022-07-17T05:12:14;6.43;;;4.00;;
12511;SDS011;6321;53.798;10.382;2022-07-17T05:14:40;7.30;;;3.43;;
12511;SDS011;6321;53.798;10.382;2022-07-17T05:17:06;7.50;;;3.13;;
12511;SDS011;6321;53.798;10.382;2022-07-17T05:19:32;9.37;;;3.17;;
12511;SDS011;6321;53.798;10.382;2022-07-17T05:21:58;13.73;;;4.17;;
12511;SDS011;6321;53.798;10.382;2022-07-17T05:24:24;10.13;;;3.27;;
12511;SDS011;6321;53.798;10.382;2022-07-17T05:26:50;6.50;;;3.50;;
12511;SDS011;6321;53.798;10.382;2022-07-17T05:29:16;7.20;;;3.30;;
12511;SDS011;6321;53.798;10.382;2022-07-17T05:31:42;8.30;;;3.40;;
12511;SDS011;6321;53.798;10.382;2022-07-17T05:34:08;6.10;;;3.43;;
12511;SDS011;6321;53.798;10.382;2022-07-17T05:36:34;10.50;;;3.43;;
12511;SDS011;6321;53.798;10.382;2022-07-17T05:39:00;6.07;;;3.00;;
12511;SDS011;6321;53.798;10.382;2022-07-17T05:41:26;5.20;;;3.40;;
12511;SDS011;6321;53.798;10.382;2022-07-17T05:43:52;7.83;;;3.00;;
12511;SDS011;6321;53.798;10.382;2022-07-17T05:46:18;7.23;;;3.10;;
12511;SDS011;6321;53.798;10.382;2022-07-17T05:48:44;7.33;;;2.80;;
12511;SDS011;6321;53.798;10.382;2022-07-17T05:51:09;5.57;;;3.10;;
12511;SDS011;6321;53.798;10.382;2022-07-17T05:53:35;6.87;;;2.77;;
12511;SDS011;6321;53.798;10.382;2022-07-17T05:56:01;9.13;;;2.90;;
12511;SDS011;6321;53.798;10.382;2022-07-17T05:58:27;6.73;;;3.10;;
12511;SDS011;6321;53.798;10.382;2022-07-17T06:00:53;5.37;;;3.10;;
12511;SDS011;6321;53.798;10.382;2022-07-17T06:03:19;8.03;;;2.83;;
12511;SDS011;6321;53.798;10.382;2022-07-17T06:05:45;5.73;;;3.00;;
12511;SDS011;6321;53.798;10.382;2022-07-17T06:08:11;9.00;;;2.80;;
12511;SDS011;6321;53.798;10.382;2022-07-17T06:10:37;9.57;;;3.07;;
12511;SDS011;6321;53.798;10.382;2022-07-17T06:13:03;4.20;;;2.30;;
12511;SDS011;6321;53.798;10.382;2022-07-17T06:15:29;6.03;;;2.50;;
12511;SDS011;6321;53.798;10.382;2022-07-17T06:17:59;4.83;;;2.33;;
12511;SDS011;6321;53.798;10.382;2022-07-17T06:20:25;6.50;;;2.40;;
12511;SDS011;6321;53.798;10.382;2022-07-17T06:22:51;9.93;;;2.97;;
12511;SDS011;6321;53.798;10.382;2022-07-17T06:25:17;10.40;;;2.90;;
12511;SDS011;6321;53.798;10.382;2022-07-17T06:27:43;7.30;;;2.77;;
12511;SDS011;6321;53.798;10.382;2022-07-17T06:30:09;6.57;;;2.37;;
12511;SDS011;6321;53.798;10.382;2022-07-17T06:32:36;7.50;;;2.60;;
12511;SDS011;6321;53.798;10.382;2022-07-17T06:35:02;4.67;;;2.47;;
12511;SDS011;6321;53.798;10.382;2022-07-17T06:37:28;5.47;;;2.40;;
12511;SDS011;6321;53.798;10.382;2022-07-17T06:39:54;4.67;;;2.43;;
12511;SDS011;6321;53.798;10.382;2022-07-17T06:42:20;5.83;;;2.27;;
12511;SDS011;6321;53.798;10.382;2022-07-17T06:44:46;5.27;;;2.57;;
12511;SDS011;6321;53.798;10.382;2022-07-17T06:47:11;6.20;;;3.20;;
12511;SDS011;6321;53.798;10.382;2022-07-17T06:49:37;5.40;;;2.40;;
12511;SDS011;6321;53.798;10.382;2022-07-17T06:52:03;4.07;;;2.33;;
12511;SDS011;6321;53.798;10.382;2022-07-17T06:54:29;5.50;;;2.40;;
12511;SDS011;6321;53.798;10.382;2022-07-17T06:56:55;7.13;;;2.67;;
12511;SDS011;6321;53.798;10.382;2022-07-17T06:59:21;7.07;;;2.30;;
12511;SDS011;6321;53.798;10.382;2022-07-17T07:01:47;4.90;;;2.50;;
12511;SDS011;6321;53.798;10.382;2022-07-17T07:04:13;3.33;;;2.10;;
12511;SDS011;6321;53.798;10.382;2022-07-17T07:06:39;3.67;;;1.93;;
12511;SDS011;6321;53.798;10.382;2022-07-17T07:09:06;5.60;;;2.20;;
12511;SDS011;6321;53.798;10.382;2022-07-17T07:11:32;4.80;;;2.30;;
12511;SDS011;6321;53.798;10.382;2022-07-17T07:13:58;8.87;;;3.37;;
12511;SDS011;6321;53.798;10.382;2022-07-17T07:16:24;8.00;;;2.93;;
12511;SDS011;6321;53.798;10.382;2022-07-17T07:18:50;14.33;;;2.47;;
12511;SDS011;6321;53.798;10.382;2022-07-17T07:21:16;7.93;;;2.07;;
12511;SDS011;6321;53.798;10.382;2022-07-17T07:23:42;6.83;;;2.33;;
12511;SDS011;6321;53.798;10.382;2022-07-17T07:26:08;4.27;;;2.30;;
12511;SDS011;6321;53.798;10.382;2022-07-17T07:28:34;5.57;;;2.10;;
12511;SDS011;6321;53.798;10.382;2022-07-17T07:31:00;7.37;;;2.13;;
12511;SDS011;6321;53.798;10.382;2022-07-17T07:33:26;6.97;;;2.37;;
12511;SDS011;6321;53.798;10.382;2022-07-17T07:35:52;5.93;;;2.63;;
12511;SDS011;6321;53.798;10.382;2022-07-17T07:38:18;6.57;;;2.20;;
12511;SDS011;6321;53.798;10.382;2022-07-17T07:40:44;6.97;;;2.43;;
12511;SDS011;6321;53.798;10.382;2022-07-17T07:43:10;9.73;;;2.47;;
12511;SDS011;6321;53.798;10.382;2022-07-17T07:45:36;5.90;;;2.33;;
12511;SDS011;6321;53.798;10.382;2022-07-17T07:48:02;5.17;;;2.20;;
12511;SDS011;6321;53.798;10.382;2022-07-17T07:50:28;7.40;;;2.17;;
12511;SDS011;6321;53.798;10.382;2022-07-17T07:52:54;5.40;;;2.03;;
12511;SDS011;6321;53.798;10.382;2022-07-17T07:55:20;6.33;;;2.17;;
12511;SDS011;6321;53.798;10.382;2022-07-17T07:57:47;4.83;;;2.17;;
12511;SDS011;6321;53.798;10.382;2022-07-17T08:00:15;6.03;;;2.37;;
12511;SDS011;6321;53.798;10.382;2022-07-17T08:02:42;3.50;;;1.50;;
12511;SDS011;6321;53.798;10.382;2022-07-17T08:05:08;5.13;;;2.03;;
12511;SDS011;6321;53.798;10.382;2022-07-17T08:07:34;5.33;;;2.53;;
12511;SDS011;6321;53.798;10.382;2022-07-17T08:10:01;6.50;;;1.80;;
12511;SDS011;6321;53.798;10.382;2022-07-17T08:12:27;4.70;;;2.33;;
12511;SDS011;6321;53.798;10.382;2022-07-17T08:14:53;6.47;;;1.93;;
12511;SDS011;6321;53.798;10.382;2022-07-17T08:17:19;4.53;;;2.00;;
12511;SDS011;6321;53.798;10.382;2022-07-17T08:19:45;5.60;;;2.33;;
12511;SDS011;6321;53.798;10.382;2022-07-17T08:22:11;3.77;;;1.80;;
12511;SDS011;6321;53.798;10.382;2022-07-17T08:24:37;3.60;;;1.90;;
12511;SDS011;6321;53.798;10.382;2022-07-17T08:27:04;5.30;;;2.33;;
12511;SDS011;6321;53.798;10.382;2022-07-17T08:29:30;6.10;;;1.73;;
12511;SDS011;6321;53.798;10.382;2022-07-17T08:31:56;7.00;;;2.23;;
12511;SDS011;6321;53.798;10.382;2022-07-17T08:34:22;3.80;;;1.73;;
12511;SDS011;6321;53.798;10.382;2022-07-17T08:36:48;5.47;;;1.80;;
12511;SDS011;6321;53.798;10.382;2022-07-17T08:39:14;3.77;;;2.33;;
12511;SDS011;6321;53.798;10.382;2022-07-17T08:41:40;6.80;;;2.27;;
12511;SDS011;6321;53.798;10.382;2022-07-17T08:44:07;3.97;;;1.93;;
12511;SDS011;6321;53.798;10.382;2022-07-17T08:46:37;6.93;;;2.13;;
12511;SDS011;6321;53.798;10.382;2022-07-17T08:49:04;5.03;;;2.53;;
12511;SDS011;6321;53.798;10.382;2022-07-17T08:51:30;4.03;;;1.90;;
12511;SDS011;6321;53.798;10.382;2022-07-17T08:53:56;4.87;;;1.70;;
12511;SDS011;6321;53.798;10.382;2022-07-17T08:56:23;3.50;;;1.70;;
12511;SDS011;6321;53.798;10.382;2022-07-17T08:58:49;3.83;;;1.70;;
12511;SDS011;6321;53.798;10.382;2022-07-17T09:01:16;5.77;;;1.93;;
12511;SDS011;6321;53.798;10.382;2022-07-17T09:03:52;5.60;;;1.90;;
12511;SDS011;6321;53.798;10.382;2022-07-17T09:06:19;5.73;;;1.63;;
12511;SDS011;6321;53.798;10.382;2022-07-17T09:08:45;2.47;;;1.90;;
12511;SDS011;6321;53.798;10.382;2022-07-17T09:11:11;2.47;;;1.77;;
12511;SDS011;6321;53.798;10.382;2022-07-17T09:13:37;7.03;;;2.43;;
12511;SDS011;6321;53.798;10.382;2022-07-17T09:16:07;7.43;;;2.20;;
12511;SDS011;6321;53.798;10.382;2022-07-17T09:18:49;3.20;;;1.90;;
12511;SDS011;6321;53.798;10.382;2022-07-17T09:21:17;3.87;;;2.17;;
12511;SDS011;6321;53.798;10.382;2022-07-17T09:23:43;4.40;;;2.00;;
12511;SDS011;6321;53.798;10.382;2022-07-17T09:26:09;4.00;;;2.10;;
12511;SDS011;6321;53.798;10.382;2022-07-17T09:28:45;4.20;;;2.17;;
12511;SDS011;6321;53.798;10.382;2022-07-17T09:31:11;5.17;;;2.43;;
12511;SDS011;6321;53.798;10.382;2022-07-17T09:33:39;5.17;;;2.40;;
12511;SDS011;6321;53.798;10.382;2022-07-17T09:36:09;2.77;;;1.90;;
12511;SDS011;6321;53.798;10.382;2022-07-17T09:38:38;7.67;;;1.90;;
12511;SDS011;6321;53.798;10.382;2022-07-17T09:41:14;5.77;;;2.27;;
12511;SDS011;6321;53.798;10.382;2022-07-17T09:46:08;3.93;;;1.87;;
12511;SDS011;6321;53.798;10.382;2022-07-17T09:48:35;7.13;;;2.07;;
12511;SDS011;6321;53.798;10.382;2022-07-17T09:51:01;5.43;;;2.07;;
12511;SDS011;6321;53.798;10.382;2022-07-17T09:53:29;4.17;;;2.63;;
12511;SDS011;6321;53.798;10.382;2022-07-17T09:55:57;5.80;;;2.03;;
12511;SDS011;6321;53.798;10.382;2022-07-17T09:58:24;5.13;;;2.40;;
12511;SDS011;6321;53.798;10.382;2022-07-17T10:00:51;2.83;;;1.80;;
12511;SDS011;6321;53.798;10.382;2022-07-17T10:03:18;3.33;;;2.00;;
12511;SDS011;6321;53.798;10.382;2022-07-17T10:05:44;5.50;;;2.00;;
12511;SDS011;6321;53.798;10.382;2022-07-17T10:08:10;2.40;;;1.83;;
12511;SDS011;6321;53.798;10.382;2022-07-17T10:10:36;7.50;;;2.00;;
12511;SDS011;6321;53.798;10.382;2022-07-17T10:13:02;3.93;;;1.80;;
12511;SDS011;6321;53.798;10.382;2022-07-17T10:15:28;6.03;;;2.40;;
12511;SDS011;6321;53.798;10.382;2022-07-17T10:18:06;6.80;;;2.00;;
12511;SDS011;6321;53.798;10.382;2022-07-17T10:20:32;4.77;;;1.80;;
12511;SDS011;6321;53.798;10.382;2022-07-17T10:22:58;5.70;;;1.93;;
12511;SDS011;6321;53.798;10.382;2022-07-17T10:25:24;2.43;;;1.90;;
12511;SDS011;6321;53.798;10.382;2022-07-17T10:27:54;4.40;;;2.10;;
12511;SDS011;6321;53.798;10.382;2022-07-17T10:30:25;5.33;;;2.10;;
12511;SDS011;6321;53.798;10.382;2022-07-17T10:32:56;4.07;;;2.00;;
12511;SDS011;6321;53.798;10.382;2022-07-17T10:35:23;3.90;;;2.13;;
12511;SDS011;6321;53.798;10.382;2022-07-17T10:37:49;5.50;;;2.00;;
12511;SDS011;6321;53.798;10.382;2022-07-17T10:40:16;3.77;;;1.80;;
12511;SDS011;6321;53.798;10.382;2022-07-17T10:45:16;3.97;;;1.90;;
12511;SDS011;6321;53.798;10.382;2022-07-17T10:47:50;5.53;;;2.10;;
12511;SDS011;6321;53.798;10.382;2022-07-17T10:50:19;5.10;;;2.20;;
12511;SDS011;6321;53.798;10.382;2022-07-17T10:52:55;5.93;;;2.20;;
12511;SDS011;6321;53.798;10.382;2022-07-17T10:55:21;2.30;;;1.80;;
12511;SDS011;6321;53.798;10.382;2022-07-17T10:57:48;3.53;;;2.10;;
12511;SDS011;6321;53.798;10.382;2022-07-17T11:00:14;4.77;;;2.00;;
12511;SDS011;6321;53.798;10.382;2022-07-17T11:02:41;5.27;;;1.80;;
12511;SDS011;6321;53.798;10.382;2022-07-17T11:05:08;5.17;;;2.00;;
12511;SDS011;6321;53.798;10.382;2022-07-17T11:07:34;3.87;;;2.00;;
12511;SDS011;6321;53.798;10.382;2022-07-17T11:10:00;5.57;;;2.13;;
12511;SDS011;6321;53.798;10.382;2022-07-17T11:12:33;4.07;;;2.30;;
12511;SDS011;6321;53.798;10.382;2022-07-17T11:15:02;4.63;;;1.87;;
12511;SDS011;6321;53.798;10.382;2022-07-17T11:17:28;3.70;;;2.03;;
12511;SDS011;6321;53.798;10.382;2022-07-17T11:19:54;2.90;;;1.90;;
12511;SDS011;6321;53.798;10.382;2022-07-17T11:22:23;4.83;;;1.90;;
12511;SDS011;6321;53.798;10.382;2022-07-17T11:24:49;3.33;;;1.77;;
12511;SDS011;6321;53.798;10.382;2022-07-17T11:29:45;2.70;;;1.60;;
12511;SDS011;6321;53.798;10.382;2022-07-17T11:32:11;5.30;;;2.13;;
12511;SDS011;6321;53.798;10.382;2022-07-17T11:34:37;2.00;;;1.70;;
12511;SDS011;6321;53.798;10.382;2022-07-17T11:37:04;3.80;;;1.90;;
12511;SDS011;6321;53.798;10.382;2022-07-17T11:39:37;5.37;;;2.33;;
12511;SDS011;6321;53.798;10.382;2022-07-17T11:42:04;3.07;;;1.93;;
12511;SDS011;6321;53.798;10.382;2022-07-17T11:44:32;1.90;;;1.70;;
12511;SDS011;6321;53.798;10.382;2022-07-17T11:46:58;4.03;;;2.13;;
12511;SDS011;6321;53.798;10.382;2022-07-17T11:49:25;4.93;;;1.90;;
12511;SDS011;6321;53.798;10.382;2022-07-17T11:51:51;5.13;;;1.93;;
12511;SDS011;6321;53.798;10.382;2022-07-17T11:54:17;4.10;;;2.13;;
12511;SDS011;6321;53.798;10.382;2022-07-17T11:56:50;1.60;;;1.50;;
12511;SDS011;6321;53.798;10.382;2022-07-17T11:59:23;3.03;;;1.80;;
12511;SDS011;6321;53.798;10.382;2022-07-17T12:01:50;4.77;;;1.97;;
12511;SDS011;6321;53.798;10.382;2022-07-17T12:04:25;3.77;;;1.70;;
12511;SDS011;6321;53.798;10.382;2022-07-17T12:07:01;2.83;;;1.60;;
12511;SDS011;6321;53.798;10.382;2022-07-17T12:09:28;3.30;;;1.93;;
12511;SDS011;6321;53.798;10.382;2022-07-17T12:11:54;3.47;;;1.80;;
12511;SDS011;6321;53.798;10.382;2022-07-17T12:14:20;3.13;;;1.93;;
12511;SDS011;6321;53.798;10.382;2022-07-17T12:16:46;2.77;;;1.57;;
12511;SDS011;6321;53.798;10.382;2022-07-17T12:19:13;4.53;;;2.10;;
12511;SDS011;6321;53.798;10.382;2022-07-17T12:21:47;3.40;;;1.87;;
12511;SDS011;6321;53.798;10.382;2022-07-17T12:26:56;3.37;;;1.70;;
12511;SDS011;6321;53.798;10.382;2022-07-17T12:29:22;2.70;;;1.67;;
12511;SDS011;6321;53.798;10.382;2022-07-17T12:31:48;4.17;;;1.97;;
12511;SDS011;6321;53.798;10.382;2022-07-17T12:34:14;2.37;;;1.53;;
12511;SDS011;6321;53.798;10.382;2022-07-17T12:36:40;4.30;;;2.17;;
12511;SDS011;6321;53.798;10.382;2022-07-17T12:39:06;2.63;;;1.87;;
12511;SDS011;6321;53.798;10.382;2022-07-17T12:41:32;2.83;;;1.70;;
12511;SDS011;6321;53.798;10.382;2022-07-17T12:43:58;2.73;;;1.60;;
12511;SDS011;6321;53.798;10.382;2022-07-17T12:46:24;2.63;;;2.07;;
12511;SDS011;6321;53.798;10.382;2022-07-17T12:48:50;2.67;;;1.73;;
12511;SDS011;6321;53.798;10.382;2022-07-17T12:51:16;2.10;;;1.90;;
12511;SDS011;6321;53.798;10.382;2022-07-17T12:53:43;1.57;;;1.47;;
12511;SDS011;6321;53.798;10.382;2022-07-17T12:56:09;3.73;;;1.93;;
12511;SDS011;6321;53.798;10.382;2022-07-17T12:58:35;3.10;;;2.27;;
12511;SDS011;6321;53.798;10.382;2022-07-17T13:01:02;2.70;;;1.70;;
12511;SDS011;6321;53.798;10.382;2022-07-17T13:03:28;2.37;;;1.67;;
12511;SDS011;6321;53.798;10.382;2022-07-17T13:05:53;4.77;;;2.00;;
12511;SDS011;6321;53.798;10.382;2022-07-17T13:08:19;3.83;;;1.73;;
12511;SDS011;6321;53.798;10.382;2022-07-17T13:10:45;5.67;;;1.90;;
12511;SDS011;6321;53.798;10.382;2022-07-17T13:13:11;3.33;;;1.90;;
12511;SDS011;6321;53.798;10.382;2022-07-17T13:15:37;2.47;;;2.00;;
12511;SDS011;6321;53.798;10.382;2022-07-17T13:18:03;4.33;;;1.90;;
12511;SDS011;6321;53.798;10.382;2022-07-17T13:20:29;3.03;;;1.80;;
12511;SDS011;6321;53.798;10.382;2022-07-17T13:22:55;4.23;;;1.80;;
12511;SDS011;6321;53.798;10.382;2022-07-17T13:25:21;2.00;;;1.70;;
12511;SDS011;6321;53.798;10.382;2022-07-17T13:27:47;2.93;;;1.87;;
12511;SDS011;6321;53.798;10.382;2022-07-17T13:30:13;3.40;;;2.00;;
12511;SDS011;6321;53.798;10.382;2022-07-17T13:32:39;2.47;;;1.90;;
12511;SDS011;6321;53.798;10.382;2022-07-17T13:35:05;2.80;;;1.77;;
12511;SDS011;6321;53.798;10.382;2022-07-17T13:37:32;1.97;;;1.60;;
12511;SDS011;6321;53.798;10.382;2022-07-17T13:39:57;2.90;;;1.53;;
12511;SDS011;6321;53.798;10.382;2022-07-17T13:42:23;2.73;;;1.93;;
12511;SDS011;6321;53.798;10.382;2022-07-17T13:44:49;3.80;;;1.73;;
12511;SDS011;6321;53.798;10.382;2022-07-17T13:47:16;1.97;;;1.77;;
12511;SDS011;6321;53.798;10.382;2022-07-17T13:49:42;4.40;;;1.80;;
12511;SDS011;6321;53.798;10.382;2022-07-17T13:52:08;3.40;;;2.00;;
12511;SDS011;6321;53.798;10.382;2022-07-17T13:54:34;3.83;;;1.53;;
12511;SDS011;6321;53.798;10.382;2022-07-17T13:57:00;3.90;;;2.00;;
12511;SDS011;6321;53.798;10.382;2022-07-17T13:59:26;2.43;;;1.77;;
12511;SDS011;6321;53.798;10.382;2022-07-17T14:01:52;2.70;;;1.70;;
12511;SDS011;6321;53.798;10.382;2022-07-17T14:04:18;3.03;;;1.50;;
12511;SDS011;6321;53.798;10.382;2022-07-17T14:06:44;3.43;;;1.47;;
12511;SDS011;6321;53.798;10.382;2022-07-17T14:09:10;2.90;;;1.70;;
12511;SDS011;6321;53.798;10.382;2022-07-17T14:11:36;2.73;;;1.60;;
12511;SDS011;6321;53.798;10.382;2022-07-17T14:14:03;2.43;;;1.70;;
12511;SDS011;6321;53.798;10.382;2022-07-17T14:16:29;2.30;;;1.60;;
12511;SDS011;6321;53.798;10.382;2022-07-17T14:18:55;2.60;;;1.67;;
12511;SDS011;6321;53.798;10.382;2022-07-17T14:21:25;2.03;;;1.60;;
12511;SDS011;6321;53.798;10.382;2022-07-17T14:23:51;3.40;;;1.90;;
12511;SDS011;6321;53.798;10.382;2022-07-17T14:26:17;2.50;;;1.63;;
12511;SDS011;6321;53.798;10.382;2022-07-17T14:28:43;2.67;;;1.80;;
12511;SDS011;6321;53.798;10.382;2022-07-17T14:31:09;1.90;;;1.67;;
12511;SDS011;6321;53.798;10.382;2022-07-17T14:33:34;2.20;;;1.70;;
12511;SDS011;6321;53.798;10.382;2022-07-17T14:36:00;2.10;;;1.90;;
12511;SDS011;6321;53.798;10.382;2022-07-17T14:38:26;2.13;;;1.93;;
12511;SDS011;6321;53.798;10.382;2022-07-17T14:40:52;2.20;;;2.00;;
12511;SDS011;6321;53.798;10.382;2022-07-17T14:43:18;2.53;;;1.87;;
12511;SDS011;6321;53.798;10.382;2022-07-17T14:45:44;3.53;;;2.03;;
12511;SDS011;6321;53.798;10.382;2022-07-17T14:48:10;3.40;;;2.20;;
12511;SDS011;6321;53.798;10.382;2022-07-17T14:50:36;3.33;;;2.00;;
12511;SDS011;6321;53.798;10.382;2022-07-17T14:53:02;3.03;;;2.30;;